createdAt,value
2019-03-18T00:00:34.902Z,8.87
2019-03-18T00:02:43.588Z,8.75
2019-03-18T00:04:51.259Z,8.71
2019-03-18T00:06:58.926Z,8.60
2019-03-18T00:09:07.520Z,8.60
2019-03-18T00:11:15.151Z,8.65
2019-03-18T00:13:22.877Z,8.55
2019-03-18T00:15:31.821Z,8.49
2019-03-18T00:17:39.392Z,8.53
2019-03-18T00:19:47.124Z,8.55
2019-03-18T00:21:54.702Z,8.62
2019-03-18T00:24:02.546Z,8.56
2019-03-18T00:26:10.114Z,8.63
2019-03-18T00:28:19.168Z,8.49
2019-03-18T00:30:26.793Z,8.49
2019-03-18T00:32:34.456Z,8.42
2019-03-18T00:34:43.416Z,8.48
2019-03-18T00:36:51.174Z,8.43
2019-03-18T00:38:58.877Z,8.44
2019-03-18T00:41:06.640Z,8.34
2019-03-18T00:43:14.372Z,8.28
2019-03-18T00:45:22.100Z,8.20
2019-03-18T00:47:29.694Z,8.25
2019-03-18T00:49:37.495Z,8.24
2019-03-18T00:51:45.123Z,8.20
2019-03-18T00:53:52.788Z,8.21
2019-03-18T00:56:00.343Z,8.20
2019-03-18T00:58:08.010Z,8.21
2019-03-18T01:00:20.559Z,8.18
2019-03-18T01:02:28.180Z,8.07
2019-03-18T01:04:36.748Z,8.02
2019-03-18T01:06:44.627Z,8.01
2019-03-18T01:08:52.402Z,7.98
2019-03-18T01:11:00.106Z,7.98
2019-03-18T01:13:07.927Z,7.82
2019-03-18T01:15:27.290Z,7.68
2019-03-18T01:17:26.835Z,7.59
2019-03-18T01:21:40.860Z,7.40
2019-03-18T01:23:48.411Z,7.39
2019-03-18T01:25:56.033Z,7.35
2019-03-18T01:28:03.772Z,7.35
2019-03-18T01:30:15.387Z,7.38
2019-03-18T01:32:22.975Z,7.40
2019-03-18T01:34:30.541Z,7.21
2019-03-18T01:36:38.942Z,7.05
2019-03-18T01:38:46.569Z,6.93
2019-03-18T01:40:54.133Z,6.90
2019-03-18T01:43:01.782Z,6.92
2019-03-18T01:45:11.168Z,6.81
2019-03-18T01:47:18.924Z,6.76
2019-03-18T01:49:26.751Z,6.64
2019-03-18T01:51:34.452Z,6.54
2019-03-18T01:53:42.017Z,6.61
2019-03-18T01:55:49.680Z,6.49
2019-03-18T01:57:57.360Z,6.52
2019-03-18T02:00:11.857Z,6.46
2019-03-18T02:02:19.671Z,6.29
2019-03-18T02:04:27.165Z,6.41
2019-03-18T02:06:35.632Z,6.36
2019-03-18T02:08:44.480Z,6.31
2019-03-18T02:10:52.243Z,6.29
2019-03-18T02:13:01.160Z,6.24
2019-03-18T02:15:14.117Z,6.22
2019-03-18T02:17:22.114Z,6.29
2019-03-18T02:19:29.865Z,6.26
2019-03-18T02:21:37.415Z,6.15
2019-03-18T02:23:45.074Z,6.21
2019-03-18T02:25:52.758Z,6.12
2019-03-18T02:28:00.387Z,5.81
2019-03-18T02:30:18.909Z,5.75
2019-03-18T02:32:26.643Z,5.75
2019-03-18T02:34:34.276Z,5.72
2019-03-18T02:36:41.862Z,5.52
2019-03-18T02:38:49.591Z,5.39
2019-03-18T02:40:58.450Z,5.19
2019-03-18T02:43:06.094Z,4.96
2019-03-18T02:45:15.074Z,4.81
2019-03-18T02:47:24.283Z,4.81
2019-03-18T02:49:32.037Z,4.69
2019-03-18T02:51:39.702Z,4.75
2019-03-18T02:53:47.412Z,4.73
2019-03-18T02:55:55.360Z,4.68
2019-03-18T02:58:03.206Z,4.69
2019-03-18T03:00:15.310Z,4.71
2019-03-18T03:02:23.102Z,4.78
2019-03-18T03:04:30.838Z,4.70
2019-03-18T03:06:38.631Z,4.80
2019-03-18T03:08:46.346Z,4.93
2019-03-18T03:10:54.306Z,4.82
2019-03-18T03:13:01.987Z,4.73
2019-03-18T03:15:13.121Z,4.96
2019-03-18T03:17:21.844Z,5.16
2019-03-18T03:19:29.956Z,5.01
2019-03-18T03:21:37.826Z,4.95
2019-03-18T03:23:45.620Z,5.02
2019-03-18T03:25:53.276Z,4.94
2019-03-18T03:28:00.858Z,4.93
2019-03-18T03:30:12.362Z,4.88
2019-03-18T03:32:20.021Z,4.80
2019-03-18T03:34:27.601Z,4.88
2019-03-18T03:36:35.423Z,5.02
2019-03-18T03:38:43.132Z,5.09
2019-03-18T03:40:51.083Z,5.11
2019-03-18T03:42:58.908Z,5.40
2019-03-18T03:45:10.260Z,5.53
2019-03-18T03:47:18.018Z,5.44
2019-03-18T03:49:25.647Z,5.46
2019-03-18T03:51:34.925Z,5.61
2019-03-18T03:53:42.579Z,5.44
2019-03-18T03:55:50.147Z,5.33
2019-03-18T03:57:58.321Z,5.35
2019-03-18T04:00:12.930Z,5.39
2019-03-18T04:02:20.849Z,5.35
2019-03-18T04:04:28.559Z,5.66
2019-03-18T04:06:36.505Z,5.47
2019-03-18T04:08:44.998Z,5.70
2019-03-18T04:10:52.907Z,5.81
2019-03-18T04:13:00.721Z,5.72
2019-03-18T04:15:14.417Z,5.72
2019-03-18T04:17:22.239Z,5.76
2019-03-18T04:19:29.928Z,5.77
2019-03-18T04:21:37.781Z,5.87
2019-03-18T04:23:45.428Z,5.96
2019-03-18T04:25:53.771Z,6.04
2019-03-18T04:28:01.515Z,6.13
2019-03-18T04:30:14.425Z,6.24
2019-03-18T04:32:22.101Z,6.25
2019-03-18T04:34:29.772Z,6.25
2019-03-18T04:36:38.713Z,6.30
2019-03-18T04:38:46.420Z,6.33
2019-03-18T04:40:54.127Z,6.36
2019-03-18T04:43:01.804Z,6.38
2019-03-18T04:45:11.297Z,6.37
2019-03-18T04:47:18.974Z,6.35
2019-03-18T04:49:26.685Z,6.32
2019-03-18T04:51:34.366Z,6.28
2019-03-18T04:53:42.051Z,6.21
2019-03-18T04:55:49.860Z,6.23
2019-03-18T04:57:57.731Z,6.22
2019-03-18T05:00:10.288Z,6.21
2019-03-18T05:02:17.967Z,6.20
2019-03-18T05:04:25.677Z,6.20
2019-03-18T05:06:33.352Z,6.21
2019-03-18T05:08:41.094Z,6.21
2019-03-18T05:10:48.751Z,6.21
2019-03-18T05:12:56.393Z,6.06
2019-03-18T05:15:05.473Z,5.98
2019-03-18T05:17:13.087Z,6.02
2019-03-18T05:19:20.760Z,6.01
2019-03-18T05:21:28.335Z,6.17
2019-03-18T05:23:37.241Z,6.16
2019-03-18T05:25:44.913Z,6.23
2019-03-18T05:27:52.562Z,6.17
2019-03-18T05:30:00.348Z,6.27
2019-03-18T05:32:08.120Z,6.37
2019-03-18T05:34:17.079Z,6.42
2019-03-18T05:36:24.735Z,6.48
2019-03-18T05:38:32.478Z,6.47
2019-03-18T05:40:40.158Z,6.47
2019-03-18T05:42:47.767Z,6.45
2019-03-18T05:44:56.980Z,6.47
2019-03-18T05:47:04.721Z,6.46
2019-03-18T05:49:12.426Z,6.44
2019-03-18T05:51:20.125Z,6.45
2019-03-18T05:53:27.974Z,6.46
2019-03-18T05:55:35.615Z,6.45
2019-03-18T05:57:43.161Z,6.46
2019-03-18T05:59:52.019Z,6.42
2019-03-18T06:01:59.733Z,6.47
2019-03-18T06:04:08.597Z,6.50
2019-03-18T06:06:16.177Z,6.50
2019-03-18T06:08:23.786Z,6.52
2019-03-18T06:10:31.365Z,6.53
2019-03-18T06:12:39.594Z,6.50
2019-03-18T06:14:47.339Z,6.51
2019-03-18T06:16:55.011Z,6.32
2019-03-18T06:19:02.586Z,6.43
2019-03-18T06:21:10.445Z,6.35
2019-03-18T06:23:18.070Z,6.40
2019-03-18T06:25:25.829Z,6.24
2019-03-18T06:27:34.796Z,6.22
2019-03-18T06:29:42.613Z,6.47
2019-03-18T06:31:50.601Z,6.48
2019-03-18T06:33:58.473Z,6.55
2019-03-18T06:36:06.043Z,6.51
2019-03-18T06:38:14.607Z,6.65
2019-03-18T06:40:22.420Z,6.74
2019-03-18T06:42:31.350Z,6.48
2019-03-18T06:44:39.090Z,6.58
2019-03-18T06:46:46.764Z,6.68
2019-03-18T06:48:54.516Z,6.76
2019-03-18T06:51:02.190Z,6.77
2019-03-18T06:53:09.964Z,6.79
2019-03-18T06:55:18.910Z,6.80
2019-03-18T06:57:26.679Z,6.76
2019-03-18T06:59:34.349Z,6.81
2019-03-18T07:01:42.136Z,6.83
2019-03-18T07:03:49.885Z,6.69
2019-03-18T07:05:57.499Z,6.82
2019-03-18T07:08:06.434Z,6.90
2019-03-18T07:10:14.850Z,6.92
2019-03-18T07:12:22.752Z,6.80
2019-03-18T07:14:30.426Z,6.92
2019-03-18T07:16:38.074Z,7.01
2019-03-18T07:18:45.782Z,6.58
2019-03-18T07:20:53.352Z,6.72
2019-03-18T07:23:01.209Z,6.85
2019-03-18T07:25:10.002Z,6.82
2019-03-18T07:27:17.584Z,6.91
2019-03-18T07:29:25.337Z,6.93
2019-03-18T07:31:33.024Z,6.79
2019-03-18T07:33:40.772Z,6.93
2019-03-18T07:35:48.349Z,7.04
2019-03-18T07:37:56.086Z,7.00
2019-03-18T07:40:05.763Z,6.61
2019-03-18T07:42:13.406Z,6.53
2019-03-18T07:44:22.291Z,6.57
2019-03-18T07:46:29.934Z,6.56
2019-03-18T07:48:38.803Z,6.71
2019-03-18T07:50:46.612Z,6.73
2019-03-18T07:52:54.245Z,6.85
2019-03-18T07:55:01.819Z,6.67
2019-03-18T07:57:10.663Z,6.89
2019-03-18T07:59:18.395Z,6.97
2019-03-18T08:01:25.979Z,7.07
2019-03-18T08:03:36.395Z,7.15
2019-03-18T08:05:43.042Z,6.73
2019-03-18T08:07:50.621Z,6.77
2019-03-18T08:09:58.372Z,6.85
2019-03-18T08:12:06.124Z,7.15
2019-03-18T08:14:15.935Z,7.45
2019-03-18T08:16:23.439Z,7.55
2019-03-18T08:18:42.780Z,7.16
2019-03-18T08:20:41.582Z,7.35
2019-03-18T08:22:49.355Z,7.44
2019-03-18T08:24:57.212Z,7.17
2019-03-18T08:27:04.856Z,7.08
2019-03-18T08:29:12.666Z,7.14
2019-03-18T08:31:20.395Z,7.21
2019-03-18T08:33:28.135Z,7.25
2019-03-18T08:35:35.949Z,7.31
2019-03-18T08:37:43.626Z,7.35
2019-03-18T08:39:51.294Z,7.55
2019-03-18T08:41:59.065Z,7.71
2019-03-18T08:44:06.797Z,7.48
2019-03-18T08:46:14.770Z,7.34
2019-03-18T08:48:22.627Z,7.58
2019-03-18T08:50:31.261Z,7.40
2019-03-18T08:52:39.042Z,7.49
2019-03-18T08:54:46.812Z,7.81
2019-03-18T08:56:54.497Z,7.75
2019-03-18T08:59:02.202Z,7.76
2019-03-18T09:01:09.869Z,8.06
2019-03-18T09:03:17.656Z,8.33
2019-03-18T09:05:25.223Z,8.43
2019-03-18T09:07:32.815Z,8.33
2019-03-18T09:09:40.625Z,8.19
2019-03-18T09:11:48.330Z,8.49
2019-03-18T09:13:55.997Z,8.21
2019-03-18T09:16:03.755Z,7.93
2019-03-18T09:18:12.452Z,7.70
2019-03-18T09:20:20.819Z,8.05
2019-03-18T09:22:28.562Z,8.32
2019-03-18T09:24:36.236Z,7.84
2019-03-18T09:26:43.828Z,7.66
2019-03-18T09:28:51.405Z,7.76
2019-03-18T09:30:59.406Z,7.75
2019-03-18T09:33:06.995Z,7.94
2019-03-18T09:35:14.629Z,7.86
2019-03-18T09:37:22.398Z,7.53
2019-03-18T09:39:30.130Z,7.69
2019-03-18T09:41:37.769Z,7.82
2019-03-18T09:43:45.546Z,8.07
2019-03-18T09:45:54.555Z,7.99
2019-03-18T09:48:02.425Z,7.96
2019-03-18T09:50:11.601Z,8.00
2019-03-18T09:52:19.277Z,8.03
2019-03-18T09:54:27.023Z,7.89
2019-03-18T09:56:34.590Z,8.18
2019-03-18T09:58:42.347Z,8.27
2019-03-18T10:00:49.980Z,8.52
2019-03-18T10:02:57.880Z,8.74
2019-03-18T10:05:07.415Z,8.93
2019-03-18T10:07:15.159Z,9.12
2019-03-18T10:09:22.842Z,8.88
2019-03-18T10:11:30.436Z,8.62
2019-03-18T10:13:38.173Z,8.42
2019-03-18T10:15:45.845Z,8.84
2019-03-18T10:17:53.425Z,9.17
2019-03-18T10:20:01.129Z,8.93
2019-03-18T10:22:09.037Z,9.03
2019-03-18T10:24:17.042Z,9.07
2019-03-18T10:26:24.682Z,8.89
2019-03-18T10:28:32.318Z,9.04
2019-03-18T10:30:40.086Z,8.89
2019-03-18T10:32:47.720Z,9.24
2019-03-18T10:34:55.402Z,9.43
2019-03-18T10:37:03.253Z,9.58
2019-03-18T10:39:10.823Z,9.87
2019-03-18T10:41:18.673Z,10.00
2019-03-18T10:43:26.252Z,10.13
2019-03-18T10:45:34.968Z,10.15
2019-03-18T10:47:42.609Z,10.32
2019-03-18T10:49:50.440Z,10.37
2019-03-18T10:51:58.012Z,10.43
2019-03-18T10:54:06.901Z,10.43
2019-03-18T10:56:14.646Z,10.41
2019-03-18T10:58:22.401Z,10.38
2019-03-18T11:00:30.219Z,10.32
2019-03-18T11:02:38.062Z,10.35
2019-03-18T11:04:45.789Z,10.39
2019-03-18T11:06:53.461Z,10.45
2019-03-18T11:09:01.456Z,10.52
2019-03-18T11:11:09.907Z,10.59
2019-03-18T11:13:17.588Z,10.38
2019-03-18T11:15:25.498Z,10.26
2019-03-18T11:17:33.282Z,10.45
2019-03-18T11:19:41.017Z,10.41
2019-03-18T11:21:48.988Z,10.39
2019-03-18T11:23:56.554Z,10.37
2019-03-18T11:26:04.397Z,10.45
2019-03-18T11:28:12.162Z,10.45
2019-03-18T11:30:21.055Z,10.48
2019-03-18T11:32:28.630Z,10.51
2019-03-18T11:34:36.233Z,10.56
2019-03-18T11:36:43.806Z,10.53
2019-03-18T11:38:52.341Z,10.53
2019-03-18T11:40:59.950Z,10.37
2019-03-18T11:43:07.665Z,9.44
2019-03-18T11:45:17.110Z,9.53
2019-03-18T11:47:25.002Z,9.91
2019-03-18T11:49:39.617Z,9.70
2019-03-18T11:51:41.845Z,9.79
2019-03-18T11:53:49.707Z,9.79
2019-03-18T11:55:57.375Z,9.82
2019-03-18T11:58:05.163Z,9.50
2019-03-18T12:00:19.626Z,8.88
2019-03-18T12:02:30.054Z,7.08
2019-03-18T12:04:37.785Z,6.12
2019-03-18T12:06:45.725Z,5.24
2019-03-18T12:08:53.462Z,5.00
2019-03-18T12:11:01.023Z,5.05
2019-03-18T12:13:08.771Z,4.96
2019-03-18T12:15:21.922Z,4.90
2019-03-18T12:17:29.498Z,4.84
2019-03-18T12:19:37.170Z,4.90
2019-03-18T12:21:44.745Z,4.94
2019-03-18T12:23:52.390Z,5.06
2019-03-18T12:26:00.086Z,5.11
2019-03-18T12:28:07.755Z,5.23
2019-03-18T12:30:26.077Z,5.38
2019-03-18T12:32:33.748Z,5.60
2019-03-18T12:34:41.523Z,5.57
2019-03-18T12:36:49.264Z,5.61
2019-03-18T12:38:57.992Z,5.66
2019-03-18T12:41:05.828Z,5.52
2019-03-18T12:43:13.579Z,5.52
2019-03-18T12:45:22.471Z,5.49
2019-03-18T12:47:30.100Z,5.57
2019-03-18T12:49:38.437Z,5.62
2019-03-18T12:51:46.023Z,5.66
2019-03-18T12:53:53.842Z,5.68
2019-03-18T12:56:01.412Z,5.86
2019-03-18T12:58:09.162Z,6.08
2019-03-18T13:00:23.469Z,6.27
2019-03-18T13:02:31.043Z,6.52
2019-03-18T13:04:38.715Z,6.52
2019-03-18T13:06:46.397Z,6.62
2019-03-18T13:08:54.146Z,6.79
2019-03-18T13:11:01.849Z,6.88
2019-03-18T13:13:09.662Z,6.95
2019-03-18T13:15:21.335Z,7.14
2019-03-18T13:17:28.931Z,7.07
2019-03-18T13:19:36.729Z,7.04
2019-03-18T13:21:44.421Z,7.12
2019-03-18T13:23:52.191Z,7.17
2019-03-18T13:26:00.423Z,7.45
2019-03-18T13:28:08.270Z,7.62
2019-03-18T13:30:18.950Z,7.46
2019-03-18T13:32:26.519Z,7.67
2019-03-18T13:34:34.093Z,7.65
2019-03-18T13:36:41.835Z,7.77
2019-03-18T13:38:49.581Z,7.78
2019-03-18T13:40:57.255Z,7.73
2019-03-18T13:43:05.167Z,7.55
2019-03-18T13:45:18.959Z,7.48
2019-03-18T13:47:27.504Z,7.54
2019-03-18T13:49:35.413Z,7.78
2019-03-18T13:51:43.163Z,7.50
2019-03-18T13:53:50.943Z,7.51
2019-03-18T13:55:59.724Z,7.77
2019-03-18T13:58:07.488Z,7.61
2019-03-18T14:00:21.548Z,7.73
2019-03-18T14:02:29.259Z,7.99
2019-03-18T14:04:37.005Z,8.11
2019-03-18T14:06:44.959Z,8.11
2019-03-18T14:08:52.668Z,8.08
2019-03-18T14:11:00.480Z,8.21
2019-03-18T14:13:08.121Z,8.39
2019-03-18T14:15:20.823Z,8.55
2019-03-18T14:17:28.397Z,8.65
2019-03-18T14:19:35.978Z,8.59
2019-03-18T14:21:43.653Z,8.46
2019-03-18T14:23:51.429Z,8.55
2019-03-18T14:25:59.176Z,8.76
2019-03-18T14:28:06.953Z,8.85
2019-03-18T14:30:21.154Z,8.93
2019-03-18T14:32:28.721Z,8.94
2019-03-18T14:34:36.430Z,8.91
2019-03-18T14:36:44.182Z,8.97
2019-03-18T14:38:51.840Z,9.05
2019-03-18T14:40:59.548Z,9.11
2019-03-18T14:43:07.127Z,9.02
2019-03-18T14:45:22.146Z,9.02
2019-03-18T14:47:29.743Z,9.10
2019-03-18T14:49:37.327Z,9.13
2019-03-18T14:51:46.085Z,9.11
2019-03-18T14:53:54.050Z,9.08
2019-03-18T14:56:01.601Z,9.05
2019-03-18T14:58:09.175Z,9.03
2019-03-18T15:00:22.745Z,9.01
2019-03-18T15:02:30.316Z,9.00
2019-03-18T15:04:37.969Z,9.00
2019-03-18T15:06:46.924Z,8.89
2019-03-18T15:08:54.669Z,8.91
2019-03-18T15:11:02.344Z,8.97
2019-03-18T15:13:10.085Z,8.96
2019-03-18T15:15:19.669Z,9.04
2019-03-18T15:17:27.522Z,9.06
2019-03-18T15:19:36.413Z,9.12
2019-03-18T15:21:44.094Z,9.03
2019-03-18T15:23:52.141Z,9.04
2019-03-18T15:26:00.143Z,8.90
2019-03-18T15:28:08.064Z,8.92
2019-03-18T15:30:18.746Z,8.97
2019-03-18T15:32:26.361Z,9.01
2019-03-18T15:34:34.109Z,8.96
2019-03-18T15:36:41.884Z,8.84
2019-03-18T15:38:49.593Z,8.90
2019-03-18T15:40:57.272Z,8.97
2019-03-18T15:43:05.091Z,8.82
2019-03-18T15:45:19.794Z,8.74
2019-03-18T15:47:27.547Z,8.71
2019-03-18T15:49:35.302Z,8.74
2019-03-18T15:51:43.036Z,8.85
2019-03-18T15:53:50.947Z,8.79
2019-03-18T15:55:58.526Z,8.63
2019-03-18T15:58:07.605Z,8.70
2019-03-18T16:00:21.192Z,8.63
2019-03-18T16:02:28.767Z,8.69
2019-03-18T16:04:36.474Z,8.62
2019-03-18T16:06:44.154Z,8.63
2019-03-18T16:08:51.898Z,8.65
2019-03-18T16:10:59.497Z,8.70
2019-03-18T16:13:07.185Z,8.68
2019-03-18T16:15:16.572Z,8.64
2019-03-18T16:17:25.318Z,8.67
2019-03-18T16:19:33.031Z,8.63
2019-03-18T16:21:40.620Z,8.58
2019-03-18T16:23:48.405Z,8.66
2019-03-18T16:25:56.040Z,8.65
2019-03-18T16:28:04.755Z,8.67
2019-03-18T16:30:18.806Z,8.59
2019-03-18T16:32:26.448Z,8.59
2019-03-18T16:34:34.187Z,8.47
2019-03-18T16:36:44.082Z,8.40
2019-03-18T16:38:51.721Z,8.44
2019-03-18T16:40:59.506Z,8.45
2019-03-18T16:43:07.327Z,8.43
2019-03-18T16:45:19.200Z,8.39
2019-03-18T16:47:26.777Z,8.33
2019-03-18T16:49:34.397Z,8.23
2019-03-18T16:51:42.075Z,8.14
2019-03-18T16:53:49.647Z,8.06
2019-03-18T16:55:57.812Z,7.99
2019-03-18T16:58:05.626Z,7.92
2019-03-18T17:00:19.637Z,7.84
2019-03-18T17:02:28.422Z,7.77
2019-03-18T17:04:37.272Z,7.68
2019-03-18T17:06:44.842Z,7.58
2019-03-18T17:08:52.534Z,7.50
2019-03-18T17:11:00.098Z,7.35
2019-03-18T17:13:07.673Z,7.38
2019-03-18T17:15:18.015Z,7.37
2019-03-18T17:17:25.660Z,7.33
2019-03-18T17:19:33.237Z,7.30
2019-03-18T17:21:40.915Z,7.30
2019-03-18T17:23:49.731Z,7.27
2019-03-18T17:25:57.407Z,7.27
2019-03-18T17:28:05.509Z,7.26
2019-03-18T17:30:19.437Z,7.22
2019-03-18T17:32:27.188Z,7.18
2019-03-18T17:34:34.869Z,7.19
2019-03-18T17:36:42.460Z,7.12
2019-03-18T17:38:50.047Z,7.10
2019-03-18T17:40:57.760Z,7.11
2019-03-18T17:43:05.782Z,7.12
2019-03-18T17:45:15.574Z,7.13
2019-03-18T17:47:23.413Z,7.13
2019-03-18T17:49:31.053Z,7.14
2019-03-18T17:51:38.682Z,7.12
2019-03-18T17:53:46.752Z,7.07
2019-03-18T17:55:54.416Z,7.05
2019-03-18T17:58:02.076Z,6.99
2019-03-18T18:00:25.249Z,6.92
2019-03-18T18:02:32.941Z,6.86
2019-03-18T18:04:40.653Z,6.77
2019-03-18T18:06:48.388Z,6.68
2019-03-18T18:08:56.220Z,6.62
2019-03-18T18:11:03.883Z,6.55
2019-03-18T18:13:11.609Z,6.51
2019-03-18T18:15:19.212Z,6.50
2019-03-18T18:17:26.808Z,6.46
2019-03-18T18:19:34.650Z,6.43
2019-03-18T18:21:42.339Z,6.41
2019-03-18T18:23:50.044Z,6.38
2019-03-18T18:25:57.772Z,6.35
2019-03-18T18:28:06.801Z,6.29
2019-03-18T18:30:19.350Z,6.23
2019-03-18T18:32:26.976Z,6.15
2019-03-18T18:34:34.672Z,6.09
2019-03-18T18:36:42.391Z,6.01
2019-03-18T18:38:50.005Z,5.93
2019-03-18T18:40:57.598Z,5.87
2019-03-18T18:43:05.347Z,5.80
2019-03-18T18:45:14.014Z,5.75
2019-03-18T18:47:21.744Z,5.68
2019-03-18T18:49:29.520Z,5.66
2019-03-18T18:51:37.457Z,5.64
2019-03-18T18:53:46.286Z,5.62
2019-03-18T18:55:54.061Z,5.60
2019-03-18T18:58:01.768Z,5.57
2019-03-18T19:00:21.878Z,5.54
2019-03-18T19:02:30.245Z,5.52
2019-03-18T19:04:38.077Z,5.47
2019-03-18T19:06:45.726Z,5.47
2019-03-18T19:08:53.486Z,5.45
2019-03-18T19:11:01.184Z,5.05
2019-03-18T19:13:08.994Z,4.79
2019-03-18T19:15:26.174Z,4.92
2019-03-18T19:17:33.871Z,4.92
2019-03-18T19:19:41.462Z,5.05
2019-03-18T19:21:49.107Z,5.11
2019-03-18T19:23:56.803Z,5.14
2019-03-18T19:26:04.560Z,5.15
2019-03-18T19:28:14.327Z,5.17
2019-03-18T19:30:23.317Z,5.18
2019-03-18T19:32:30.981Z,5.18
2019-03-18T19:34:38.680Z,5.18
2019-03-18T19:36:46.494Z,5.16
2019-03-18T19:38:54.096Z,5.18
2019-03-18T19:41:01.679Z,5.18
2019-03-18T19:43:09.433Z,5.18
2019-03-18T19:45:17.435Z,5.15
2019-03-18T19:47:25.232Z,5.15
2019-03-18T19:49:34.109Z,5.16
2019-03-18T19:51:41.802Z,5.14
2019-03-18T19:53:49.707Z,5.06
2019-03-18T19:55:57.438Z,5.10
2019-03-18T19:58:05.097Z,5.10
2019-03-18T20:00:20.411Z,5.12
2019-03-18T20:02:28.130Z,5.11
2019-03-18T20:04:35.885Z,5.10
2019-03-18T20:06:43.652Z,5.12
2019-03-18T20:08:51.450Z,5.12
2019-03-18T20:10:59.048Z,5.13
2019-03-18T20:13:06.708Z,5.10
2019-03-18T20:15:17.775Z,5.11
2019-03-18T20:17:25.498Z,5.11
2019-03-18T20:19:33.709Z,5.13
2019-03-18T20:21:41.331Z,5.15
2019-03-18T20:24:00.063Z,5.15
2019-03-18T20:25:58.491Z,5.16
2019-03-18T20:28:06.372Z,5.19
2019-03-18T20:30:20.168Z,5.20
2019-03-18T20:32:27.760Z,5.20
2019-03-18T20:34:35.606Z,5.24
2019-03-18T20:36:43.300Z,5.24
2019-03-18T20:38:51.051Z,5.23
2019-03-18T20:40:58.776Z,5.26
2019-03-18T20:43:06.540Z,5.25
2019-03-18T20:45:19.857Z,5.25
2019-03-18T20:47:27.648Z,5.17
2019-03-18T20:49:35.459Z,5.18
2019-03-18T20:51:44.340Z,5.16
2019-03-18T20:53:52.351Z,5.12
2019-03-18T20:56:01.156Z,5.09
2019-03-18T20:58:08.845Z,5.11
2019-03-18T21:00:22.410Z,5.11
2019-03-18T21:02:30.153Z,5.10
2019-03-18T21:04:37.817Z,5.09
2019-03-18T21:06:46.796Z,5.12
2019-03-18T21:08:54.585Z,5.06
2019-03-18T21:11:02.344Z,5.05
2019-03-18T21:13:09.960Z,5.03
2019-03-18T21:15:18.594Z,5.04
2019-03-18T21:17:26.353Z,4.85
2019-03-18T21:19:34.136Z,4.84
2019-03-18T21:21:41.888Z,4.82
2019-03-18T21:23:49.572Z,4.81
2019-03-18T21:25:57.288Z,4.92
2019-03-18T21:28:05.978Z,4.97
2019-03-18T21:30:20.231Z,4.97
2019-03-18T21:32:27.903Z,4.97
2019-03-18T21:34:36.833Z,5.00
2019-03-18T21:36:44.468Z,5.02
2019-03-18T21:38:52.313Z,4.98
2019-03-18T21:41:00.032Z,5.05
2019-03-18T21:43:07.608Z,5.06
2019-03-18T21:45:23.690Z,5.07
2019-03-18T21:47:31.491Z,5.02
2019-03-18T21:49:39.065Z,5.03
2019-03-18T21:51:46.748Z,5.05
2019-03-18T21:53:54.648Z,5.04
2019-03-18T21:56:02.229Z,5.00
2019-03-18T21:58:10.059Z,5.00
2019-03-18T22:00:22.364Z,4.97
2019-03-18T22:02:30.128Z,4.96
2019-03-18T22:04:37.867Z,4.90
2019-03-18T22:06:45.609Z,4.84
2019-03-18T22:08:53.356Z,4.74
2019-03-18T22:11:00.948Z,4.66
2019-03-18T22:13:08.770Z,4.55
2019-03-18T22:15:17.745Z,4.54
2019-03-18T22:17:25.342Z,4.52
2019-03-18T22:19:33.019Z,4.50
2019-03-18T22:21:40.657Z,4.49
2019-03-18T22:23:48.354Z,4.50
2019-03-18T22:25:56.029Z,4.46
2019-03-18T22:28:03.675Z,4.42
2019-03-18T22:30:16.036Z,4.40
2019-03-18T22:32:24.979Z,4.35
2019-03-18T22:34:32.804Z,4.36
2019-03-18T22:36:40.518Z,4.32
2019-03-18T22:38:48.192Z,4.29
2019-03-18T22:40:55.839Z,4.29
2019-03-18T22:43:03.647Z,4.26
2019-03-18T22:45:15.058Z,4.26
2019-03-18T22:47:22.925Z,4.26
2019-03-18T22:49:30.698Z,4.24
2019-03-18T22:51:38.484Z,4.25
2019-03-18T22:53:46.127Z,4.19
2019-03-18T22:55:53.861Z,4.21
2019-03-18T22:58:03.037Z,4.14
2019-03-18T23:00:36.727Z,4.21
2019-03-18T23:02:44.643Z,4.08
2019-03-18T23:04:52.389Z,3.92
2019-03-18T23:07:00.229Z,3.99
2019-03-18T23:09:08.114Z,4.10
2019-03-18T23:11:15.890Z,4.05
2019-03-18T23:13:23.679Z,3.99
2019-03-18T23:15:31.525Z,4.17
2019-03-18T23:17:39.439Z,4.19
2019-03-18T23:19:47.278Z,4.19
2019-03-18T23:21:55.044Z,4.24
2019-03-18T23:24:02.724Z,4.22
2019-03-18T23:26:10.458Z,4.26
2019-03-18T23:28:18.291Z,4.27
2019-03-18T23:30:26.136Z,4.35
2019-03-18T23:32:34.531Z,4.35
2019-03-18T23:34:43.270Z,4.30
2019-03-18T23:36:50.857Z,4.38
2019-03-18T23:38:58.655Z,4.42
2019-03-18T23:41:06.343Z,4.36
2019-03-18T23:43:14.028Z,4.38
2019-03-18T23:45:21.779Z,4.37
2019-03-18T23:47:29.629Z,4.32
2019-03-18T23:49:37.244Z,4.28
2019-03-18T23:51:45.068Z,4.27
2019-03-18T23:53:52.958Z,4.18
2019-03-18T23:56:00.613Z,4.20
2019-03-18T23:58:08.189Z,4.15
